createdAt,value
2023-03-12T00:01:10.447Z,93.45
2023-03-12T00:03:36.867Z,92.60
2023-03-12T00:06:10.576Z,92.80
2023-03-12T00:08:37.595Z,92.48
2023-03-12T00:11:09.447Z,93.11
2023-03-12T00:13:35.930Z,92.25
2023-03-12T00:16:13.877Z,93.61
2023-03-12T00:18:41.792Z,93.55
2023-03-12T00:21:09.326Z,92.76
2023-03-12T00:23:36.727Z,92.60
2023-03-12T00:26:14.301Z,93.08
2023-03-12T00:28:41.356Z,93.28
2023-03-12T00:31:17.947Z,92.19
2023-03-12T00:33:45.224Z,92.42
2023-03-12T00:36:12.433Z,92.71
2023-03-12T00:38:38.883Z,92.13
2023-03-12T00:41:05.279Z,92.47
2023-03-12T00:43:31.776Z,92.35
2023-03-12T00:45:58.244Z,92.73
2023-03-12T00:48:25.351Z,92.62
2023-03-12T00:50:51.860Z,92.48
2023-03-12T00:53:18.295Z,93.19
2023-03-12T00:55:44.766Z,93.04
2023-03-12T00:58:11.186Z,92.40
2023-03-12T01:00:37.650Z,93.06
2023-03-12T01:03:04.313Z,92.38
2023-03-12T01:05:33.474Z,92.32
2023-03-12T01:08:01.181Z,91.78
2023-03-12T01:10:27.638Z,91.36
2023-03-12T01:12:54.022Z,91.38
2023-03-12T01:15:20.504Z,91.38
2023-03-12T01:17:46.995Z,91.34
2023-03-12T01:20:13.862Z,91.70
2023-03-12T01:22:40.340Z,91.67
2023-03-12T01:25:07.290Z,92.46
2023-03-12T01:27:33.690Z,91.48
2023-03-12T01:30:00.334Z,92.72
2023-03-12T01:32:26.813Z,92.33
2023-03-12T01:34:53.562Z,91.25
2023-03-12T01:37:19.968Z,91.62
2023-03-12T01:39:46.441Z,90.47
2023-03-12T01:42:12.870Z,90.99
2023-03-12T01:44:58.187Z,89.84
2023-03-12T01:47:25.868Z,89.59
2023-03-12T01:49:55.113Z,90.40
2023-03-12T01:52:29.251Z,89.36
2023-03-12T01:55:04.702Z,89.70
2023-03-12T01:57:43.536Z,89.86
2023-03-12T02:00:20.059Z,90.44
2023-03-12T02:02:49.381Z,90.31
2023-03-12T02:05:25.238Z,89.94
2023-03-12T02:07:51.699Z,90.34
2023-03-12T02:10:18.401Z,89.10
2023-03-12T02:12:45.091Z,90.43
2023-03-12T02:15:11.606Z,89.79
2023-03-12T02:17:39.440Z,89.60
2023-03-12T02:20:44.874Z,90.43
2023-03-12T02:23:56.041Z,90.35
2023-03-12T02:26:24.492Z,91.13
2023-03-12T02:28:51.022Z,90.50
2023-03-12T02:31:22.740Z,89.73
2023-03-12T02:33:49.173Z,90.43
2023-03-12T02:36:15.665Z,90.00
2023-03-12T02:38:49.674Z,89.83
2023-03-12T02:41:34.080Z,90.22
2023-03-12T02:44:13.302Z,89.92
2023-03-12T02:46:44.564Z,89.50
2023-03-12T02:49:13.210Z,88.52
2023-03-12T02:51:41.431Z,88.64
2023-03-12T02:54:08.518Z,89.35
2023-03-12T02:56:35.476Z,89.51
2023-03-12T02:59:04.388Z,88.49
2023-03-12T03:01:34.165Z,88.26
2023-03-12T03:04:02.781Z,88.54
2023-03-12T03:06:29.929Z,88.43
2023-03-12T03:08:56.496Z,88.90
2023-03-12T03:11:24.656Z,88.35
2023-03-12T03:13:54.837Z,89.00
2023-03-12T03:16:22.204Z,88.87
2023-03-12T03:18:48.657Z,88.78
2023-03-12T03:21:18.970Z,89.05
2023-03-12T03:23:47.442Z,88.22
2023-03-12T03:26:14.256Z,88.38
2023-03-12T03:31:07.662Z,88.22
2023-03-12T03:33:36.373Z,87.77
2023-03-12T03:36:04.466Z,87.62
2023-03-12T03:38:32.659Z,88.02
2023-03-12T03:40:59.136Z,87.55
2023-03-12T03:43:25.919Z,87.37
2023-03-12T03:46:00.917Z,88.09
2023-03-12T03:48:27.921Z,87.72
2023-03-12T03:50:54.404Z,86.69
2023-03-12T03:53:21.202Z,87.36
2023-03-12T03:55:48.080Z,87.29
2023-03-12T03:58:14.553Z,86.84
2023-03-12T04:00:40.957Z,86.88
2023-03-12T04:03:07.783Z,86.58
2023-03-12T04:05:34.282Z,86.96
2023-03-12T04:08:03.101Z,86.63
2023-03-12T04:10:30.300Z,86.41
2023-03-12T04:12:57.223Z,86.99
2023-03-12T04:15:24.455Z,87.14
2023-03-12T04:17:51.083Z,86.81
2023-03-12T04:20:17.740Z,87.34
2023-03-12T04:22:44.241Z,85.97
2023-03-12T04:25:11.374Z,86.61
2023-03-12T04:27:37.785Z,86.47
2023-03-12T04:30:05.289Z,86.79
2023-03-12T04:32:31.785Z,86.67
2023-03-12T04:34:58.306Z,86.90
2023-03-12T04:37:24.763Z,86.53
2023-03-12T04:39:51.249Z,87.56
2023-03-12T04:42:17.672Z,86.43
2023-03-12T04:44:44.137Z,87.39
2023-03-12T04:47:10.592Z,88.15
2023-03-12T04:49:39.063Z,87.87
2023-03-12T04:52:05.949Z,87.84
2023-03-12T04:54:33.127Z,88.52
2023-03-12T04:56:59.586Z,90.01
2023-03-12T04:59:26.050Z,90.34
2023-03-12T05:01:52.653Z,91.09
2023-03-12T05:04:19.118Z,90.84
2023-03-12T05:06:45.613Z,91.58
2023-03-12T05:09:12.059Z,92.39
2023-03-12T05:11:39.809Z,91.88
2023-03-12T05:14:06.636Z,92.57
2023-03-12T05:16:33.189Z,93.30
2023-03-12T05:18:59.775Z,92.96
2023-03-12T05:21:26.215Z,93.45
2023-03-12T05:23:52.706Z,94.15
2023-03-12T05:26:26.087Z,93.64
2023-03-12T05:28:52.858Z,94.50
2023-03-12T05:31:20.108Z,94.61
2023-03-12T05:33:47.296Z,94.43
2023-03-12T05:36:14.469Z,94.01
2023-03-12T05:38:42.676Z,94.33
2023-03-12T05:41:16.939Z,95.17
2023-03-12T05:43:43.380Z,93.81
2023-03-12T05:46:10.344Z,93.64
2023-03-12T05:48:36.870Z,93.93
2023-03-12T05:51:03.440Z,94.15
2023-03-12T05:53:29.857Z,94.65
2023-03-12T05:56:03.574Z,94.46
2023-03-12T05:58:30.599Z,94.96
2023-03-12T06:00:57.308Z,93.77
2023-03-12T06:03:23.841Z,94.75
2023-03-12T06:05:50.737Z,94.76
2023-03-12T06:08:17.157Z,94.20
2023-03-12T06:10:43.616Z,94.98
2023-03-12T06:13:10.881Z,94.79
2023-03-12T06:15:37.393Z,94.91
2023-03-12T06:18:04.018Z,94.96
2023-03-12T06:20:30.493Z,95.98
2023-03-12T06:22:56.932Z,95.35
2023-03-12T06:25:23.383Z,94.99
2023-03-12T06:27:49.773Z,95.53
2023-03-12T06:30:16.581Z,96.02
2023-03-12T06:32:43.146Z,96.58
2023-03-12T06:35:09.938Z,97.25
2023-03-12T06:37:36.561Z,96.85
2023-03-12T06:40:04.851Z,97.65
2023-03-12T06:42:32.275Z,98.17
2023-03-12T06:44:58.735Z,98.90
2023-03-12T06:47:25.143Z,99.66
2023-03-12T06:49:51.599Z,99.67
2023-03-12T06:52:21.037Z,100.00
2023-03-12T06:54:47.603Z,100.00
2023-03-12T06:57:16.602Z,100.00
2023-03-12T06:59:43.321Z,100.00
2023-03-12T07:02:11.529Z,100.00
2023-03-12T07:04:38.201Z,100.00
2023-03-12T07:07:04.796Z,100.00
2023-03-12T07:09:31.264Z,100.00
2023-03-12T07:11:57.816Z,100.00
2023-03-12T07:14:24.277Z,100.00
2023-03-12T07:16:50.832Z,100.00
2023-03-12T07:19:19.355Z,100.00
2023-03-12T07:21:45.780Z,100.00
2023-03-12T07:24:12.214Z,100.00
2023-03-12T07:26:38.620Z,100.00
2023-03-12T07:29:05.177Z,100.00
2023-03-12T07:31:31.708Z,100.00
2023-03-12T07:33:58.233Z,100.00
2023-03-12T07:36:24.917Z,100.00
2023-03-12T07:38:51.429Z,100.00
2023-03-12T07:41:17.928Z,100.00
2023-03-12T07:43:44.562Z,100.00
2023-03-12T07:46:11.310Z,100.00
2023-03-12T07:48:38.581Z,100.00
2023-03-12T07:51:05.840Z,100.00
2023-03-12T07:53:32.442Z,100.00
2023-03-12T07:55:59.183Z,100.00
2023-03-12T07:58:25.835Z,100.00
2023-03-12T08:00:55.370Z,100.00
2023-03-12T08:03:21.993Z,100.00
2023-03-12T08:06:02.793Z,100.00
2023-03-12T08:08:31.227Z,100.00
2023-03-12T08:10:59.478Z,100.00
2023-03-12T08:13:26.530Z,100.00
2023-03-12T08:15:54.083Z,100.00
2023-03-12T08:18:21.025Z,100.00
2023-03-12T08:20:53.764Z,100.00
2023-03-12T08:23:21.488Z,100.00
2023-03-12T08:25:49.791Z,100.00
2023-03-12T08:28:17.307Z,100.00
2023-03-12T08:30:48.871Z,100.00
2023-03-12T08:33:15.801Z,100.00
2023-03-12T08:35:42.326Z,100.00
2023-03-12T08:38:09.010Z,100.00
2023-03-12T08:40:35.668Z,100.00
2023-03-12T08:43:02.172Z,100.00
2023-03-12T08:45:28.753Z,100.00
2023-03-12T08:47:55.205Z,100.00
2023-03-12T08:50:22.866Z,100.00
2023-03-12T08:52:49.301Z,100.00
2023-03-12T08:55:18.866Z,100.00
2023-03-12T08:57:45.516Z,100.00
2023-03-12T09:00:15.038Z,100.00
2023-03-12T09:02:44.907Z,100.00
2023-03-12T09:05:11.997Z,100.00
2023-03-12T09:07:38.861Z,100.00
2023-03-12T09:10:06.257Z,100.00
2023-03-12T09:12:32.811Z,100.00
2023-03-12T09:15:04.288Z,100.00
2023-03-12T09:17:31.204Z,100.00
2023-03-12T09:19:57.745Z,100.00
2023-03-12T09:22:24.352Z,100.00
2023-03-12T09:24:50.890Z,100.00
2023-03-12T09:27:17.381Z,100.00
2023-03-12T09:29:58.743Z,100.00
2023-03-12T09:32:27.388Z,100.00
2023-03-12T09:34:54.380Z,100.00
2023-03-12T09:37:23.752Z,100.00
2023-03-12T09:39:51.560Z,100.00
2023-03-12T09:42:30.462Z,100.00
2023-03-12T09:45:00.461Z,100.00
2023-03-12T09:47:31.762Z,100.00
2023-03-12T09:50:31.707Z,100.00
2023-03-12T09:53:04.609Z,100.00
2023-03-12T09:55:40.276Z,100.00
2023-03-12T10:01:37.390Z,100.00
2023-03-12T10:04:03.782Z,100.00
2023-03-12T10:06:36.610Z,100.00
2023-03-12T10:09:08.155Z,100.00
2023-03-12T10:11:37.468Z,100.00
2023-03-12T10:14:23.894Z,100.00
2023-03-12T10:16:59.210Z,100.00
2023-03-12T10:19:39.822Z,100.00
2023-03-12T10:22:30.750Z,100.00
2023-03-12T10:25:31.936Z,100.00
2023-03-12T10:28:05.666Z,100.00
2023-03-12T10:30:33.188Z,100.00
2023-03-12T10:33:06.906Z,100.00
2023-03-12T10:35:33.371Z,100.00
2023-03-12T10:38:01.770Z,100.00
2023-03-12T10:40:30.733Z,100.00
2023-03-12T10:42:57.627Z,100.00
2023-03-12T10:45:58.213Z,100.00
2023-03-12T10:48:25.873Z,100.00
2023-03-12T10:51:21.560Z,100.00
2023-03-12T10:53:48.058Z,100.00
2023-03-12T10:56:19.400Z,100.00
2023-03-12T10:58:48.954Z,100.00
2023-03-12T11:01:15.499Z,100.00
2023-03-12T11:03:43.921Z,100.00
2023-03-12T11:06:24.642Z,100.00
2023-03-12T11:09:19.616Z,100.00
2023-03-12T11:11:48.165Z,100.00
2023-03-12T11:14:20.527Z,100.00
2023-03-12T11:16:47.569Z,100.00
2023-03-12T11:19:26.417Z,100.00
2023-03-12T11:22:01.674Z,100.00
2023-03-12T11:24:28.881Z,100.00
2023-03-12T11:27:26.038Z,100.00
2023-03-12T11:29:54.286Z,100.00
2023-03-12T11:32:37.414Z,100.00
2023-03-12T11:35:10.116Z,100.00
2023-03-12T11:38:10.511Z,100.00
2023-03-12T11:41:09.894Z,100.00
2023-03-12T11:43:49.141Z,100.00
2023-03-12T11:46:37.394Z,100.00
2023-03-12T11:49:09.878Z,100.00
2023-03-12T11:52:13.845Z,100.00
2023-03-12T11:54:54.859Z,100.00
2023-03-12T11:57:27.318Z,100.00
2023-03-12T12:00:14.570Z,100.00
2023-03-12T12:02:47.010Z,100.00
2023-03-12T12:05:27.653Z,100.00
2023-03-12T12:08:35.769Z,100.00
2023-03-12T12:11:08.106Z,100.00
2023-03-12T12:13:52.617Z,100.00
2023-03-12T12:16:56.696Z,100.00
2023-03-12T12:19:37.336Z,100.00
2023-03-12T12:22:12.446Z,100.00
2023-03-12T12:25:12.590Z,100.00
2023-03-12T12:27:54.966Z,100.00
2023-03-12T12:30:50.758Z,100.00
2023-03-12T12:33:40.763Z,100.00
2023-03-12T12:36:10.254Z,100.00
2023-03-12T12:38:42.368Z,100.00
2023-03-12T12:41:17.918Z,100.00
2023-03-12T12:43:49.467Z,100.00
2023-03-12T12:46:19.906Z,100.00
2023-03-12T12:49:10.886Z,100.00
2023-03-12T12:51:43.636Z,100.00
2023-03-12T12:54:30.575Z,100.00
2023-03-12T12:57:07.358Z,100.00
2023-03-12T12:59:40.501Z,100.00
2023-03-12T13:02:30.087Z,100.00
2023-03-12T13:04:58.850Z,100.00
2023-03-12T13:07:27.713Z,100.00
2023-03-12T13:09:56.953Z,100.00
2023-03-12T13:12:47.591Z,100.00
2023-03-12T13:15:29.410Z,100.00
2023-03-12T13:17:55.837Z,100.00
2023-03-12T13:20:28.877Z,100.00
2023-03-12T13:23:21.945Z,100.00
2023-03-12T13:26:17.416Z,100.00
2023-03-12T13:28:56.788Z,100.00
2023-03-12T13:31:29.209Z,100.00
2023-03-12T13:33:59.811Z,100.00
2023-03-12T13:36:28.587Z,100.00
2023-03-12T13:39:07.596Z,100.00
2023-03-12T13:41:38.743Z,100.00
2023-03-12T13:44:23.496Z,100.00
2023-03-12T13:47:03.744Z,100.00
2023-03-12T13:49:43.329Z,100.00
2023-03-12T13:52:34.282Z,100.00
2023-03-12T13:55:05.734Z,99.72
2023-03-12T13:57:40.474Z,99.57
2023-03-12T14:00:21.090Z,99.20
2023-03-12T14:02:54.912Z,96.73
2023-03-12T14:05:21.906Z,95.94
2023-03-12T14:08:30.982Z,94.42
2023-03-12T14:11:20.461Z,93.00
2023-03-12T14:14:07.943Z,94.10
2023-03-12T14:16:43.082Z,91.02
2023-03-12T14:19:14.176Z,89.61
2023-03-12T14:21:44.105Z,88.68
2023-03-12T14:24:20.152Z,87.22
2023-03-12T14:26:47.158Z,87.87
2023-03-12T14:29:38.945Z,87.22
2023-03-12T14:32:20.505Z,87.19
2023-03-12T14:34:53.727Z,86.81
2023-03-12T14:37:41.181Z,85.93
2023-03-12T14:40:20.272Z,85.57
2023-03-12T14:42:47.425Z,83.65
2023-03-12T14:45:18.689Z,84.48
2023-03-12T14:47:48.126Z,83.87
2023-03-12T14:50:20.352Z,83.83
2023-03-12T14:52:46.977Z,83.39
2023-03-12T14:55:18.303Z,82.50
2023-03-12T14:57:45.703Z,81.51
2023-03-12T15:00:26.551Z,82.20
2023-03-12T15:02:56.837Z,80.60
2023-03-12T15:05:23.902Z,81.58
2023-03-12T15:07:55.853Z,81.94
2023-03-12T15:10:25.638Z,82.03
2023-03-12T15:12:55.319Z,82.52
2023-03-12T15:15:36.069Z,81.88
2023-03-12T15:18:11.553Z,82.12
2023-03-12T15:20:38.143Z,80.92
2023-03-12T15:23:06.558Z,80.86
2023-03-12T15:25:34.246Z,81.12
2023-03-12T15:28:25.554Z,81.75
2023-03-12T15:31:16.598Z,81.69
2023-03-12T15:33:44.434Z,82.00
2023-03-12T15:36:17.474Z,81.88
2023-03-12T15:38:57.693Z,82.48
2023-03-12T15:41:36.785Z,82.85
2023-03-12T15:44:03.374Z,82.79
2023-03-12T15:46:29.953Z,82.37
2023-03-12T15:48:58.974Z,81.15
2023-03-12T15:51:31.448Z,82.02
2023-03-12T15:54:17.216Z,82.16
2023-03-12T15:56:43.953Z,81.81
2023-03-12T15:59:16.684Z,82.46
2023-03-12T16:01:51.338Z,82.05
2023-03-12T16:04:17.875Z,81.91
2023-03-12T16:06:48.177Z,82.30
2023-03-12T16:09:27.299Z,83.09
2023-03-12T16:11:55.472Z,83.89
2023-03-12T16:14:30.669Z,84.18
2023-03-12T16:16:57.474Z,83.40
2023-03-12T16:19:27.827Z,84.41
2023-03-12T16:21:54.300Z,84.65
2023-03-12T16:24:20.792Z,84.87
2023-03-12T16:26:55.474Z,85.02
2023-03-12T16:29:24.471Z,85.29
2023-03-12T16:31:56.695Z,86.15
2023-03-12T16:34:23.200Z,85.21
2023-03-12T16:36:49.900Z,86.35
2023-03-12T16:39:18.469Z,86.40
2023-03-12T16:41:45.393Z,86.66
2023-03-12T16:44:17.803Z,86.82
2023-03-12T16:46:44.977Z,87.28
2023-03-12T16:49:16.454Z,87.05
2023-03-12T16:51:43.140Z,87.46
2023-03-12T16:54:11.970Z,88.40
2023-03-12T16:56:42.698Z,88.29
2023-03-12T16:59:20.834Z,88.87
2023-03-12T17:01:47.381Z,88.77
2023-03-12T17:04:13.966Z,88.20
2023-03-12T17:06:40.470Z,88.78
2023-03-12T17:09:08.432Z,89.00
2023-03-12T17:11:37.788Z,90.12
2023-03-12T17:14:15.793Z,90.11
2023-03-12T17:16:42.250Z,89.97
2023-03-12T17:19:08.774Z,90.11
2023-03-12T17:21:35.508Z,90.29
2023-03-12T17:24:01.980Z,90.14
2023-03-12T17:26:28.490Z,90.02
2023-03-12T17:28:54.961Z,90.35
2023-03-12T17:31:21.506Z,89.91
2023-03-12T17:33:48.014Z,90.30
2023-03-12T17:36:14.459Z,90.40
2023-03-12T17:38:40.927Z,90.75
2023-03-12T17:41:23.472Z,90.44
2023-03-12T17:43:52.236Z,90.98
2023-03-12T17:46:18.806Z,90.38
2023-03-12T17:48:45.290Z,90.94
2023-03-12T17:51:11.722Z,91.34
2023-03-12T17:53:41.897Z,91.57
2023-03-12T17:56:09.156Z,91.09
2023-03-12T17:58:35.605Z,91.46
2023-03-12T18:01:02.178Z,91.16
2023-03-12T18:03:28.737Z,91.61
2023-03-12T18:05:55.740Z,91.63
2023-03-12T18:08:22.236Z,91.52
2023-03-12T18:10:49.041Z,91.29
2023-03-12T18:13:15.451Z,91.49
2023-03-12T18:15:41.912Z,91.35
2023-03-12T18:18:08.625Z,91.75
2023-03-12T18:20:39.376Z,92.45
2023-03-12T18:23:06.850Z,92.53
2023-03-12T18:25:33.796Z,91.78
2023-03-12T18:28:00.306Z,92.40
2023-03-12T18:30:28.244Z,92.28
2023-03-12T18:32:54.869Z,92.09
2023-03-12T18:35:22.643Z,92.18
2023-03-12T18:37:53.020Z,92.36
2023-03-12T18:40:19.557Z,92.43
2023-03-12T18:42:45.999Z,92.15
2023-03-12T18:45:12.712Z,92.10
2023-03-12T18:47:39.660Z,92.67
2023-03-12T18:50:07.839Z,91.58
2023-03-12T18:52:34.667Z,91.44
2023-03-12T18:55:01.669Z,91.88
2023-03-12T18:57:28.252Z,91.75
2023-03-12T18:59:54.683Z,92.00
2023-03-12T19:02:21.130Z,92.68
2023-03-12T19:04:47.638Z,92.53
2023-03-12T19:07:14.250Z,92.68
2023-03-12T19:09:40.750Z,93.26
2023-03-12T19:12:07.362Z,92.70
2023-03-12T19:14:33.888Z,93.31
2023-03-12T19:17:00.398Z,93.30
2023-03-12T19:19:26.901Z,93.40
2023-03-12T19:21:53.533Z,92.85
2023-03-12T19:24:19.977Z,93.58
2023-03-12T19:26:46.500Z,93.46
2023-03-12T19:29:15.158Z,93.12
2023-03-12T19:31:41.938Z,92.86
2023-03-12T19:34:08.816Z,92.72
2023-03-12T19:36:35.427Z,92.98
2023-03-12T19:39:04.382Z,93.30
2023-03-12T19:41:33.244Z,92.76
2023-03-12T19:43:59.662Z,92.54
2023-03-12T19:46:26.071Z,92.45
2023-03-12T19:48:53.406Z,92.39
2023-03-12T19:51:19.832Z,92.42
2023-03-12T19:53:46.296Z,92.37
2023-03-12T19:56:12.700Z,92.90
2023-03-12T19:58:39.134Z,92.85
2023-03-12T20:01:05.710Z,93.44
2023-03-12T20:03:32.923Z,93.86
2023-03-12T20:05:59.894Z,94.62
2023-03-12T20:08:32.714Z,95.45
2023-03-12T20:11:06.746Z,95.85
2023-03-12T20:13:33.993Z,95.76
2023-03-12T20:16:01.382Z,96.32
2023-03-12T20:18:27.927Z,96.08
2023-03-12T20:20:54.334Z,96.52
2023-03-12T20:23:20.779Z,97.00
2023-03-12T20:25:50.813Z,96.29
2023-03-12T20:28:17.848Z,96.55
2023-03-12T20:30:44.754Z,96.69
2023-03-12T20:33:11.259Z,97.60
2023-03-12T20:35:37.882Z,97.33
2023-03-12T20:38:04.533Z,96.95
2023-03-12T20:40:31.180Z,97.64
2023-03-12T20:42:57.669Z,96.92
2023-03-12T20:45:24.158Z,97.53
2023-03-12T20:47:50.722Z,97.67
2023-03-12T20:50:17.381Z,97.13
2023-03-12T20:52:44.938Z,97.67
2023-03-12T20:55:11.491Z,97.63
2023-03-12T20:57:37.918Z,97.63
2023-03-12T21:00:05.523Z,97.48
2023-03-12T21:02:32.101Z,96.92
2023-03-12T21:04:58.560Z,97.17
2023-03-12T21:07:24.975Z,97.79
2023-03-12T21:09:51.679Z,97.54
2023-03-12T21:12:18.078Z,97.71
2023-03-12T21:14:44.514Z,97.32
2023-03-12T21:17:13.606Z,97.25
2023-03-12T21:19:43.838Z,97.03
2023-03-12T21:22:10.295Z,97.39
2023-03-12T21:24:36.879Z,96.86
2023-03-12T21:27:03.704Z,96.91
2023-03-12T21:29:30.185Z,97.45
2023-03-12T21:31:57.379Z,96.67
2023-03-12T21:34:23.946Z,97.00
2023-03-12T21:36:50.433Z,96.43
2023-03-12T21:39:17.552Z,97.13
2023-03-12T21:41:44.045Z,96.61
2023-03-12T21:44:10.474Z,96.48
2023-03-12T21:46:37.276Z,96.85
2023-03-12T21:49:03.939Z,97.43
2023-03-12T21:51:30.550Z,97.26
2023-03-12T21:53:58.291Z,97.52
2023-03-12T21:56:28.050Z,97.33
2023-03-12T21:58:56.726Z,97.37
2023-03-12T22:01:23.500Z,97.57
2023-03-12T22:03:50.296Z,97.24
2023-03-12T22:06:16.838Z,98.00
2023-03-12T22:08:44.573Z,97.72
2023-03-12T22:11:11.116Z,97.58
2023-03-12T22:13:37.917Z,97.62
2023-03-12T22:16:08.058Z,97.71
2023-03-12T22:18:38.987Z,97.80
2023-03-12T22:21:07.337Z,97.76
2023-03-12T22:23:36.040Z,97.21
2023-03-12T22:26:04.557Z,97.33
2023-03-12T22:28:31.591Z,97.32
2023-03-12T22:31:03.878Z,96.97
2023-03-12T22:33:30.713Z,96.95
2023-03-12T22:35:57.583Z,97.11
2023-03-12T22:38:24.877Z,97.15
2023-03-12T22:40:53.702Z,97.57
2023-03-12T22:43:21.645Z,97.87
2023-03-12T22:45:52.956Z,98.49
2023-03-12T22:48:19.436Z,98.75
2023-03-12T22:50:53.474Z,98.35
2023-03-12T22:53:19.978Z,98.86
2023-03-12T22:55:46.455Z,99.54
2023-03-12T22:58:13.057Z,100.00
2023-03-12T23:00:39.506Z,100.00
2023-03-12T23:03:05.940Z,100.00
2023-03-12T23:05:32.424Z,100.00
2023-03-12T23:07:58.935Z,100.00
2023-03-12T23:10:25.367Z,100.00
2023-03-12T23:12:51.798Z,100.00
2023-03-12T23:15:19.798Z,100.00
2023-03-12T23:17:46.356Z,100.00
2023-03-12T23:20:13.499Z,100.00
2023-03-12T23:22:39.978Z,100.00
2023-03-12T23:25:06.936Z,100.00
2023-03-12T23:27:33.884Z,100.00
2023-03-12T23:30:00.292Z,100.00
2023-03-12T23:32:26.782Z,100.00
2023-03-12T23:34:53.335Z,100.00
2023-03-12T23:37:19.816Z,100.00
2023-03-12T23:39:54.582Z,100.00
2023-03-12T23:42:21.636Z,100.00
2023-03-12T23:44:48.078Z,100.00
2023-03-12T23:47:14.565Z,100.00
2023-03-12T23:49:41.072Z,100.00
2023-03-12T23:52:07.585Z,100.00
2023-03-12T23:54:34.148Z,100.00
2023-03-12T23:57:00.626Z,100.00
2023-03-12T23:59:27.068Z,100.00
